Time;durP1;ratioP1;P1;durP2;ratioP2;P2;SDS_P1;SDS_P2;PMS_P1;PMS_P2;Temp;Humidity;BMP_temperature;BMP_pressure;BME280_temperature;BME280_humidity;BME280_pressure;Samples;Min_cycle;Max_cycle;Signal;HPM_P1;HPM_P2
2021/09/23 00:01:31;;;;;;;15.23;13.93;;;8.60;99.90;;;;;;4956088;29;20234;-77
2021/09/23 00:04:04;;;;;;;14.73;13.53;;;8.60;99.90;;;;;;4956132;28;20595;-77
2021/09/23 00:06:31;;;;;;;14.90;13.63;;;8.60;99.90;;;;;;4936186;29;20245;-77
2021/09/23 00:09:00;;;;;;;14.40;13.33;;;8.60;99.90;;;;;;4955772;28;20199;-77
2021/09/23 00:11:27;;;;;;;14.83;13.70;;;8.60;99.90;;;;;;4955823;29;20198;-77
2021/09/23 00:13:54;;;;;;;15.10;13.90;;;8.60;99.90;;;;;;4955985;29;20276;-77
2021/09/23 00:16:21;;;;;;;15.30;14.03;;;8.70;99.90;;;;;;4955840;28;20671;-77
2021/09/23 00:18:51;;;;;;;15.40;14.03;;;8.70;99.90;;;;;;4955424;29;20285;-76
2021/09/23 00:21:18;;;;;;;15.33;13.93;;;8.70;99.90;;;;;;4955246;28;20212;-77
2021/09/23 00:23:45;;;;;;;15.33;14.13;;;8.70;99.90;;;;;;4971381;28;21429;-77
2021/09/23 00:26:14;;;;;;;16.23;14.83;;;8.70;99.90;;;;;;4938409;29;20224;-76
2021/09/23 00:28:43;;;;;;;15.70;14.40;;;8.70;99.90;;;;;;4937888;29;20587;-77
2021/09/23 00:31:10;;;;;;;15.70;14.40;;;8.60;99.90;;;;;;4955586;29;20220;-77
2021/09/23 00:33:37;;;;;;;16.63;15.33;;;8.70;99.90;;;;;;4936987;29;20230;-76
2021/09/23 00:36:04;;;;;;;18.10;16.60;;;8.60;99.90;;;;;;4935266;29;20207;-77
2021/09/23 00:38:31;;;;;;;16.93;15.53;;;8.60;99.90;;;;;;4951269;28;20270;-77
2021/09/23 00:40:58;;;;;;;17.77;16.27;;;8.50;99.90;;;;;;4970266;28;20202;-77
2021/09/23 00:43:26;;;;;;;17.27;15.80;;;8.50;99.90;;;;;;4935018;29;20376;-77
2021/09/23 00:45:53;;;;;;;17.27;15.87;;;8.50;99.90;;;;;;4955273;28;20499;-77
2021/09/23 00:48:20;;;;;;;17.37;15.87;;;8.40;99.90;;;;;;4953538;29;20198;-76
2021/09/23 00:50:48;;;;;;;16.13;14.73;;;8.30;99.90;;;;;;4953810;28;20272;-77
2021/09/23 00:53:19;;;;;;;16.17;14.97;;;8.30;99.90;;;;;;4955241;28;20202;-76
2021/09/23 00:55:46;;;;;;;16.10;14.67;;;8.20;99.90;;;;;;4937914;29;20194;-77
2021/09/23 00:58:13;;;;;;;16.30;14.87;;;8.20;99.90;;;;;;4937652;29;20205;-77
2021/09/23 01:00:44;;;;;;;16.17;14.77;;;8.10;99.90;;;;;;4936948;29;20206;-77
2021/09/23 01:03:15;;;;;;;14.97;13.77;;;8.10;99.90;;;;;;4934144;29;20209;-76
2021/09/23 01:05:44;;;;;;;16.53;15.20;;;8.10;99.90;;;;;;4952837;29;20215;-77
2021/09/23 01:08:11;;;;;;;15.53;14.13;;;8.10;99.90;;;;;;4954619;29;20196;-77
2021/09/23 01:10:38;;;;;;;15.20;13.80;;;8.00;99.90;;;;;;4937517;29;20220;-77
2021/09/23 01:13:05;;;;;;;15.17;13.87;;;8.10;99.90;;;;;;4937491;28;20684;-76
2021/09/23 01:16:03;;;;;;;14.30;13.17;;;8.00;99.90;;;;;;4935702;29;20203;-77
2021/09/23 01:18:59;;;;;;;14.17;12.87;;;8.00;99.90;;;;;;4939047;29;20202;-77
2021/09/23 01:21:31;;;;;;;14.10;12.97;;;8.00;99.90;;;;;;4937415;29;20221;-76
2021/09/23 01:23:59;;;;;;;14.93;13.70;;;8.10;99.90;;;;;;4930852;29;20287;-77
2021/09/23 01:26:29;;;;;;;14.50;13.30;;;8.10;99.90;;;;;;4930689;29;20257;-77
2021/09/23 01:28:59;;;;;;;15.13;13.90;;;8.00;99.90;;;;;;4929784;29;20212;-77
2021/09/23 01:31:32;;;;;;;15.00;13.60;;;8.00;99.90;;;;;;4934980;29;20778;-76
2021/09/23 01:33:59;;;;;;;15.10;13.80;;;8.00;99.90;;;;;;4937007;29;20718;-77
2021/09/23 01:36:26;;;;;;;15.40;14.10;;;7.90;99.90;;;;;;4953140;28;20200;-76
2021/09/23 01:38:54;;;;;;;15.60;14.10;;;7.90;99.90;;;;;;4936760;28;20565;-76
2021/09/23 01:41:21;;;;;;;14.50;13.30;;;7.90;99.90;;;;;;4969387;28;20591;-75
2021/09/23 01:43:52;;;;;;;14.50;13.30;;;7.90;99.90;;;;;;4952186;28;20275;-76
2021/09/23 01:46:19;;;;;;;14.23;13.10;;;7.80;99.90;;;;;;4933340;29;20201;-77
2021/09/23 01:49:03;;;;;;;14.13;13.07;;;7.80;99.90;;;;;;4936818;29;20227;-77
2021/09/23 01:51:30;;;;;;;15.00;13.70;;;7.80;99.90;;;;;;4934402;29;20719;-77
2021/09/23 01:53:59;;;;;;;14.90;13.70;;;7.80;99.90;;;;;;4936675;28;20220;-76
2021/09/23 01:56:26;;;;;;;15.13;13.80;;;7.70;99.90;;;;;;4968919;28;20205;-77
2021/09/23 01:58:53;;;;;;;14.87;13.67;;;7.70;99.90;;;;;;4936928;29;20578;-76
2021/09/23 02:01:21;;;;;;;14.73;13.50;;;7.70;99.90;;;;;;4936686;29;20196;-76
2021/09/23 02:03:48;;;;;;;14.50;13.20;;;7.70;99.90;;;;;;4936459;29;20310;-76
2021/09/23 02:06:25;;;;;;;15.47;14.23;;;7.60;99.90;;;;;;4936683;29;20299;-77
2021/09/23 02:08:52;;;;;;;15.10;13.90;;;7.60;99.90;;;;;;4933273;29;20291;-77
2021/09/23 02:11:21;;;;;;;15.53;14.23;;;7.50;99.90;;;;;;4936730;29;20278;-76
2021/09/23 02:13:52;;;;;;;16.00;14.70;;;7.50;99.90;;;;;;4929128;29;20637;-77
2021/09/23 02:16:19;;;;;;;15.47;14.13;;;7.40;99.90;;;;;;4932542;29;20215;-76
2021/09/23 02:18:51;;;;;;;16.23;14.93;;;7.40;99.90;;;;;;4932076;29;20219;-77
2021/09/23 02:21:18;;;;;;;16.03;14.73;;;7.50;99.90;;;;;;4931951;29;20674;-77
2021/09/23 02:23:49;;;;;;;16.57;15.07;;;7.60;99.90;;;;;;4930660;29;20714;-77
2021/09/23 02:26:15;;;;;;;16.50;15.30;;;7.60;99.90;;;;;;4933398;29;20670;-76
2021/09/23 02:28:44;;;;;;;16.63;15.33;;;7.60;99.90;;;;;;4952342;28;20209;-77
2021/09/23 02:31:10;;;;;;;15.97;14.67;;;7.60;99.90;;;;;;4936468;29;20215;-76
2021/09/23 02:33:38;;;;;;;15.83;14.57;;;7.60;99.90;;;;;;4929235;29;20251;-76
2021/09/23 02:36:06;;;;;;;17.27;15.97;;;7.70;99.90;;;;;;4936455;29;20599;-77
2021/09/23 02:38:34;;;;;;;15.73;14.53;;;7.70;99.90;;;;;;4951934;28;20243;-76
2021/09/23 02:41:01;;;;;;;14.07;13.07;;;7.80;99.90;;;;;;4932314;29;20200;-78
2021/09/23 02:43:28;;;;;;;14.80;13.70;;;7.70;99.90;;;;;;4940869;28;20292;-77
2021/09/23 02:45:56;;;;;;;15.17;14.03;;;7.70;99.90;;;;;;4943980;29;20236;-77
2021/09/23 02:48:23;;;;;;;14.77;13.60;;;7.70;99.90;;;;;;4974014;28;20214;-77
2021/09/23 02:50:50;;;;;;;14.67;13.57;;;7.70;99.90;;;;;;4957798;28;20242;-77
2021/09/23 02:53:16;;;;;;;13.90;12.80;;;7.70;99.90;;;;;;4937143;29;20290;-78
2021/09/23 02:55:43;;;;;;;15.23;14.03;;;7.70;99.90;;;;;;4937823;29;20285;-78
2021/09/23 02:58:10;;;;;;;14.87;13.67;;;7.60;99.90;;;;;;4938841;29;20676;-78
2021/09/23 03:00:37;;;;;;;16.67;15.27;;;7.60;99.90;;;;;;4938219;29;20735;-78
2021/09/23 03:03:07;;;;;;;16.33;15.03;;;7.50;99.90;;;;;;4959878;28;20198;-78
2021/09/23 03:05:33;;;;;;;14.77;13.57;;;7.50;99.90;;;;;;4943648;29;20254;-78
2021/09/23 03:08:00;;;;;;;15.43;14.23;;;7.50;99.90;;;;;;4944222;28;20208;-77
2021/09/23 03:10:27;;;;;;;14.63;13.53;;;7.50;99.90;;;;;;4942599;29;20251;-79
2021/09/23 03:12:54;;;;;;;15.00;13.90;;;7.40;99.90;;;;;;4939868;29;20258;-77
2021/09/23 03:15:21;;;;;;;15.20;14.00;;;7.40;99.90;;;;;;4942098;29;20223;-78
2021/09/23 03:17:48;;;;;;;14.87;13.77;;;7.30;99.90;;;;;;4941962;29;20203;-78
2021/09/23 03:20:17;;;;;;;15.27;14.07;;;7.30;99.90;;;;;;4941696;29;20262;-77
2021/09/23 03:22:44;;;;;;;14.87;13.67;;;7.20;99.90;;;;;;4933620;29;20224;-77
2021/09/23 03:25:11;;;;;;;14.00;12.90;;;7.20;99.90;;;;;;4938886;29;20244;-79
2021/09/23 03:27:39;;;;;;;13.33;12.23;;;7.10;99.90;;;;;;4940851;29;20626;-79
2021/09/23 03:30:06;;;;;;;15.07;13.97;;;7.20;99.90;;;;;;4959369;28;20195;-79
2021/09/23 03:32:33;;;;;;;14.57;13.57;;;7.10;99.90;;;;;;4959926;29;20290;-79
2021/09/23 03:35:00;;;;;;;15.70;14.60;;;7.10;99.90;;;;;;4959626;28;20251;-76
2021/09/23 03:37:28;;;;;;;14.10;13.10;;;7.10;99.90;;;;;;4937576;29;20262;-77
2021/09/23 03:39:55;;;;;;;14.63;13.43;;;7.10;99.90;;;;;;4958958;28;20199;-76
2021/09/23 03:42:22;;;;;;;15.60;14.50;;;7.20;99.90;;;;;;4940919;29;20199;-78
2021/09/23 03:44:48;;;;;;;15.57;14.37;;;7.20;99.90;;;;;;4957762;28;20215;-77
2021/09/23 03:47:15;;;;;;;15.07;13.97;;;7.20;99.90;;;;;;4957952;28;20242;-78
2021/09/23 03:49:42;;;;;;;16.20;15.00;;;7.30;99.90;;;;;;4936703;29;20750;-77
2021/09/23 03:52:09;;;;;;;16.23;14.93;;;7.30;99.90;;;;;;4936266;29;20723;-78
2021/09/23 03:54:37;;;;;;;15.87;14.57;;;7.20;99.90;;;;;;4958165;28;20217;-77
2021/09/23 03:57:04;;;;;;;15.37;14.23;;;7.20;99.90;;;;;;4938095;28;20195;-77
2021/09/23 03:59:32;;;;;;;17.03;15.63;;;7.20;99.90;;;;;;4971338;28;20203;-78
2021/09/23 04:01:59;;;;;;;16.40;15.10;;;7.20;99.90;;;;;;4933584;29;20350;-78
2021/09/23 04:04:25;;;;;;;15.90;14.63;;;7.20;99.90;;;;;;4933527;29;20238;-77
2021/09/23 04:06:52;;;;;;;15.10;13.90;;;7.10;99.90;;;;;;4956298;29;20214;-78
2021/09/23 04:09:19;;;;;;;16.00;14.70;;;7.10;99.90;;;;;;4939181;29;20207;-78
2021/09/23 04:11:48;;;;;;;14.60;13.40;;;7.10;99.90;;;;;;4971618;28;20228;-78
2021/09/23 04:14:17;;;;;;;14.20;12.80;;;7.10;99.90;;;;;;4939208;28;20640;-78
2021/09/23 04:16:44;;;;;;;14.63;13.23;;;7.00;99.90;;;;;;4971223;28;20293;-78
2021/09/23 04:19:16;;;;;;;14.93;13.63;;;7.10;99.90;;;;;;4938625;29;20235;-78
2021/09/23 04:21:44;;;;;;;14.93;13.67;;;7.00;99.90;;;;;;4934077;29;20202;-77
2021/09/23 04:24:14;;;;;;;14.10;12.90;;;7.00;99.90;;;;;;4935571;29;20231;-78
2021/09/23 04:26:43;;;;;;;15.77;14.57;;;7.00;99.90;;;;;;4953708;29;20203;-78
2021/09/23 04:29:11;;;;;;;16.17;14.87;;;7.00;99.90;;;;;;4938850;29;20270;-77
2021/09/23 04:31:38;;;;;;;14.83;13.63;;;6.90;99.90;;;;;;4938674;29;20222;-77
2021/09/23 04:34:05;;;;;;;15.07;13.67;;;6.90;99.90;;;;;;4938332;28;20223;-78
2021/09/23 04:36:32;;;;;;;14.47;13.37;;;7.00;99.90;;;;;;4970893;28;20199;-77
2021/09/23 04:38:59;;;;;;;15.50;14.30;;;7.10;99.90;;;;;;4938394;29;20585;-78
2021/09/23 04:41:26;;;;;;;16.30;14.90;;;7.10;99.90;;;;;;4935690;29;20199;-77
2021/09/23 04:43:53;;;;;;;14.40;13.20;;;7.10;99.90;;;;;;4938244;29;20220;-78
2021/09/23 04:46:22;;;;;;;16.40;15.07;;;7.10;99.90;;;;;;4934778;29;20207;-77
2021/09/23 04:48:54;;;;;;;16.07;14.77;;;7.10;99.90;;;;;;4935335;29;20211;-78
2021/09/23 04:51:22;;;;;;;14.20;13.10;;;7.10;99.90;;;;;;4949999;29;20215;-78
2021/09/23 04:53:48;;;;;;;14.80;13.60;;;7.10;99.90;;;;;;4971378;28;20219;-78
2021/09/23 04:56:15;;;;;;;16.13;14.73;;;7.00;99.90;;;;;;4934348;29;20207;-78
2021/09/23 04:58:42;;;;;;;15.67;14.47;;;7.00;99.90;;;;;;4937730;29;20278;-78
2021/09/23 05:01:09;;;;;;;14.77;13.40;;;7.10;99.90;;;;;;4938303;29;20207;-78
2021/09/23 05:03:37;;;;;;;15.40;14.13;;;7.00;99.90;;;;;;4937777;29;20235;-78
2021/09/23 05:06:04;;;;;;;15.43;14.13;;;7.00;99.90;;;;;;4935571;29;20197;-78
2021/09/23 05:08:31;;;;;;;13.83;12.73;;;7.00;99.90;;;;;;4935029;29;20204;-77
2021/09/23 05:10:58;;;;;;;15.30;14.00;;;7.00;99.90;;;;;;4939300;28;20582;-78
2021/09/23 05:13:25;;;;;;;15.40;14.00;;;6.90;99.90;;;;;;4955740;28;20250;-78
2021/09/23 05:15:52;;;;;;;13.47;12.37;;;7.00;99.90;;;;;;4955415;28;20699;-78
2021/09/23 05:18:19;;;;;;;14.17;12.97;;;7.00;99.90;;;;;;4932702;29;20208;-77
2021/09/23 05:20:47;;;;;;;13.60;12.53;;;6.90;99.90;;;;;;4954852;28;20195;-78
2021/09/23 05:23:14;;;;;;;13.30;12.30;;;6.90;99.90;;;;;;4954701;28;20798;-78
2021/09/23 05:25:40;;;;;;;13.37;12.37;;;6.80;99.90;;;;;;4969872;28;20208;-78
2021/09/23 05:28:07;;;;;;;12.93;11.93;;;6.80;99.90;;;;;;4954909;29;20224;-78
2021/09/23 05:30:34;;;;;;;14.43;13.37;;;6.80;99.90;;;;;;4954733;29;20203;-78
2021/09/23 05:33:01;;;;;;;13.93;12.73;;;6.80;99.90;;;;;;4934380;29;20271;-77
2021/09/23 05:35:28;;;;;;;14.33;13.03;;;6.80;99.90;;;;;;4950854;28;20207;-78
2021/09/23 05:37:56;;;;;;;15.37;14.07;;;6.90;99.90;;;;;;4954382;28;20206;-78
2021/09/23 05:40:24;;;;;;;14.40;13.07;;;7.00;99.90;;;;;;4956049;28;20218;-78
2021/09/23 05:42:51;;;;;;;13.50;12.30;;;7.10;99.90;;;;;;4955908;29;20187;-78
2021/09/23 05:45:18;;;;;;;13.37;12.17;;;7.10;99.90;;;;;;4955071;29;20713;-78
2021/09/23 05:47:46;;;;;;;14.97;13.63;;;7.10;99.90;;;;;;4954642;28;20194;-77
2021/09/23 05:50:14;;;;;;;14.77;13.47;;;7.10;99.90;;;;;;4954284;28;20279;-77
2021/09/23 05:52:43;;;;;;;14.10;12.90;;;7.20;99.90;;;;;;4937672;29;20231;-78
2021/09/23 05:55:13;;;;;;;14.80;13.50;;;7.20;99.90;;;;;;4934933;29;20275;-77
2021/09/23 05:57:40;;;;;;;13.70;12.60;;;7.40;99.90;;;;;;4953239;29;20195;-78
2021/09/23 06:00:10;;;;;;;14.60;13.20;;;7.50;99.90;;;;;;4937364;28;20572;-78
2021/09/23 06:02:40;;;;;;;14.83;13.63;;;7.60;99.90;;;;;;4954594;29;20206;-78
2021/09/23 06:05:08;;;;;;;15.43;14.10;;;7.70;99.90;;;;;;4953346;28;20294;-77
2021/09/23 06:07:35;;;;;;;14.40;13.30;;;7.90;99.90;;;;;;4936887;29;20218;-77
2021/09/23 06:10:02;;;;;;;15.50;14.20;;;7.90;99.90;;;;;;4954077;28;20247;-78
2021/09/23 06:12:30;;;;;;;15.13;13.93;;;8.00;99.90;;;;;;4953973;28;20228;-78
2021/09/23 06:14:57;;;;;;;15.57;14.27;;;8.10;99.90;;;;;;4954131;28;20834;-77
2021/09/23 06:17:24;;;;;;;15.30;14.10;;;8.10;99.90;;;;;;4954643;29;20632;-77
2021/09/23 06:19:51;;;;;;;14.93;13.70;;;8.20;99.90;;;;;;4970006;28;20239;-78
2021/09/23 06:22:17;;;;;;;15.23;14.10;;;8.20;99.90;;;;;;4955714;29;20255;-78
2021/09/23 06:24:44;;;;;;;16.13;14.83;;;8.30;99.90;;;;;;4937142;29;20245;-78
2021/09/23 06:27:11;;;;;;;15.63;14.43;;;8.30;99.90;;;;;;4933671;29;20695;-78
2021/09/23 06:29:39;;;;;;;10.93;9.70;;;8.40;99.90;;;;;;4952250;29;20273;-78
2021/09/23 06:32:07;;;;;;;10.93;9.63;;;8.50;99.90;;;;;;4953819;28;20221;-77
2021/09/23 06:34:34;;;;;;;10.27;9.37;;;8.50;99.90;;;;;;4968565;28;20230;-78
2021/09/23 06:37:00;;;;;;;18.43;17.03;;;8.50;99.90;;;;;;4933361;29;20284;-78
2021/09/23 06:39:28;;;;;;;9.90;8.70;;;8.60;99.90;;;;;;4950557;28;20209;-78
2021/09/23 06:41:56;;;;;;;14.27;13.17;;;8.70;99.90;;;;;;4933565;29;20218;-77
2021/09/23 06:44:23;;;;;;;8.60;7.70;;;8.80;99.90;;;;;;4949064;28;20722;-77
2021/09/23 06:46:52;;;;;;;13.40;12.10;;;8.90;99.90;;;;;;4953964;29;20206;-77
2021/09/23 06:49:20;;;;;;;10.47;9.47;;;9.00;99.90;;;;;;4953783;29;20194;-78
2021/09/23 06:51:46;;;;;;;9.47;8.57;;;9.00;99.90;;;;;;4953222;28;20209;-78
2021/09/23 06:54:13;;;;;;;9.47;7.57;;;9.10;99.90;;;;;;4953273;28;20273;-78
2021/09/23 06:56:40;;;;;;;12.67;11.57;;;9.20;99.90;;;;;;4953639;29;20203;-77
2021/09/23 06:59:07;;;;;;;9.00;8.10;;;9.30;99.90;;;;;;4953410;28;20198;-78
2021/09/23 07:01:34;;;;;;;10.27;9.10;;;9.50;99.90;;;;;;4953712;29;20293;-78
2021/09/23 07:04:26;;;;;;;15.57;14.27;;;9.60;99.90;;;;;;4933622;29;20223;-78
2021/09/23 07:06:59;;;;;;;13.63;12.53;;;10.00;99.90;;;;;;4953704;28;20206;-78
2021/09/23 07:09:31;;;;;;;9.90;8.77;;;10.40;99.90;;;;;;4933760;29;20203;-78
2021/09/23 07:12:01;;;;;;;12.73;11.60;;;10.90;99.90;;;;;;4930260;29;20245;-79
2021/09/23 07:14:28;;;;;;;14.77;13.57;;;11.50;99.90;;;;;;4929508;29;20281;-79
2021/09/23 07:16:56;;;;;;;14.60;13.23;;;11.90;99.90;;;;;;4933594;29;20204;-78
2021/09/23 07:19:23;;;;;;;13.00;11.90;;;12.40;99.90;;;;;;4950241;28;20230;-78
2021/09/23 07:21:51;;;;;;;11.07;10.07;;;12.70;99.90;;;;;;4953794;28;20260;-79
2021/09/23 07:24:18;;;;;;;7.80;6.20;;;12.90;99.90;;;;;;4936727;29;20649;-78
2021/09/23 07:26:45;;;;;;;9.33;8.50;;;13.30;99.90;;;;;;4953782;29;20197;-79
2021/09/23 07:29:15;;;;;;;11.17;10.27;;;13.60;99.90;;;;;;4968356;28;20269;-78
2021/09/23 07:31:42;;;;;;;11.10;10.30;;;14.00;99.90;;;;;;4955399;28;20686;-79
2021/09/23 07:34:09;;;;;;;8.40;7.03;;;14.60;99.90;;;;;;4956088;28;20241;-78
2021/09/23 07:36:36;;;;;;;12.63;11.63;;;14.80;99.90;;;;;;4937340;29;20221;-79
2021/09/23 07:39:08;;;;;;;8.37;7.20;;;15.20;99.90;;;;;;4957797;28;20616;-80
2021/09/23 07:41:37;;;;;;;9.43;8.53;;;15.60;99.90;;;;;;4957516;28;20221;-79
2021/09/23 07:44:05;;;;;;;10.10;9.10;;;15.80;99.90;;;;;;4957550;28;20227;-79
2021/09/23 07:46:32;;;;;;;10.27;9.37;;;15.90;99.90;;;;;;4972139;28;20287;-79
2021/09/23 07:48:59;;;;;;;11.50;9.57;;;16.30;99.90;;;;;;4934050;29;20208;-80
2021/09/23 07:51:26;;;;;;;9.10;8.37;;;16.60;99.90;;;;;;4936333;29;20629;-79
2021/09/23 07:53:53;;;;;;;10.57;9.47;;;16.90;99.90;;;;;;4932152;29;20232;-80
2021/09/23 07:56:21;;;;;;;10.23;9.33;;;17.00;99.90;;;;;;4936080;29;20262;-80
2021/09/23 07:58:48;;;;;;;8.17;7.47;;;17.20;99.90;;;;;;4934226;29;20652;-79
2021/09/23 08:01:15;;;;;;;8.10;6.33;;;17.40;99.90;;;;;;4939495;29;20205;-79
2021/09/23 08:03:42;;;;;;;8.70;7.90;;;17.60;99.90;;;;;;4939936;29;20214;-79
2021/09/23 08:06:09;;;;;;;8.67;7.87;;;17.80;99.90;;;;;;4934912;29;20207;-79
2021/09/23 08:08:36;;;;;;;11.23;10.33;;;17.90;99.90;;;;;;4939565;29;20881;-79
2021/09/23 08:11:03;;;;;;;10.40;9.57;;;18.10;99.90;;;;;;4939296;29;20199;-79
2021/09/23 08:13:31;;;;;;;7.30;6.17;;;18.30;99.90;;;;;;4933900;29;20767;-79
2021/09/23 08:15:58;;;;;;;7.67;6.90;;;18.30;99.90;;;;;;4935783;29;20610;-79
2021/09/23 08:18:51;;;;;;;11.93;10.43;;;18.40;99.90;;;;;;4952922;29;20290;-79
2021/09/23 08:21:50;;;;;;;10.20;9.50;;;18.60;99.90;;;;;;4934222;29;20202;-79
2021/09/23 08:24:18;;;;;;;11.43;10.43;;;18.70;99.90;;;;;;4935071;29;20711;-79
2021/09/23 08:26:45;;;;;;;12.53;11.53;;;18.70;99.90;;;;;;4952898;29;20262;-79
2021/09/23 08:29:14;;;;;;;12.27;11.27;;;18.80;99.90;;;;;;4937247;28;20195;-79
2021/09/23 08:31:40;;;;;;;9.80;8.80;;;19.00;99.90;;;;;;4937958;29;20206;-80
2021/09/23 08:34:07;;;;;;;12.30;11.30;;;19.10;99.90;;;;;;4956673;28;20277;-79
2021/09/23 08:36:35;;;;;;;9.83;7.33;;;19.30;99.90;;;;;;4931315;29;20202;-79
2021/09/23 08:39:02;;;;;;;6.53;5.40;;;19.30;99.90;;;;;;4934351;29;20288;-80
2021/09/23 08:41:29;;;;;;;13.60;12.67;;;19.40;99.90;;;;;;4944229;29;20587;-78
2021/09/23 08:43:59;;;;;;;8.63;7.93;;;19.50;99.90;;;;;;4933818;29;20220;-79
2021/09/23 08:46:31;;;;;;;6.60;5.77;;;19.80;99.90;;;;;;4944842;28;20213;-79
2021/09/23 08:48:59;;;;;;;11.20;10.20;;;20.00;99.90;;;;;;4937162;28;20205;-80
2021/09/23 08:51:33;;;;;;;7.33;5.73;;;20.10;99.90;;;;;;4968885;28;20202;-80
2021/09/23 08:54:00;;;;;;;8.23;7.43;;;20.20;99.90;;;;;;4931011;29;20218;-79
2021/09/23 08:56:27;;;;;;;11.43;10.43;;;20.40;99.90;;;;;;4954767;29;20301;-80
2021/09/23 08:58:55;;;;;;;12.00;10.83;;;20.70;99.90;;;;;;4933444;29;20205;-80
2021/09/23 09:01:23;;;;;;;7.57;6.77;;;20.80;99.90;;;;;;4937559;29;20213;-80
2021/09/23 09:04:09;;;;;;;10.77;9.87;;;20.90;99.90;;;;;;4947313;28;20699;-79
2021/09/23 09:06:56;;;;;;;9.90;7.70;;;21.00;99.90;;;;;;4930421;29;20202;-80
2021/09/23 09:09:45;;;;;;;8.50;7.80;;;21.00;99.90;;;;;;4954717;28;20687;-80
2021/09/23 09:12:14;;;;;;;7.63;6.87;;;21.20;99.90;;;;;;4933500;29;20206;-80
2021/09/23 09:14:43;;;;;;;12.53;11.53;;;21.20;99.90;;;;;;4937043;29;20223;-79
2021/09/23 09:17:10;;;;;;;13.43;12.30;;;21.40;99.90;;;;;;4954708;28;20198;-80
2021/09/23 09:19:49;;;;;;;12.80;11.70;;;21.10;99.90;;;;;;4968830;28;20201;-80
2021/09/23 09:22:17;;;;;;;12.87;11.97;;;21.30;99.90;;;;;;4932478;29;20195;-80
2021/09/23 09:24:51;;;;;;;12.80;11.77;;;21.30;99.90;;;;;;4879030;29;1698468;-79
2021/09/23 09:27:34;;;;;;;9.17;8.37;;;21.50;99.90;;;;;;4953692;29;20289;-79
2021/09/23 09:30:06;;;;;;;13.43;12.37;;;21.50;99.90;;;;;;4930418;29;20294;-79
2021/09/23 09:32:41;;;;;;;11.77;10.90;;;21.60;99.90;;;;;;4935188;29;20301;-80
2021/09/23 09:35:13;;;;;;;10.27;9.37;;;21.50;99.90;;;;;;4934380;29;20725;-80
2021/09/23 09:37:41;;;;;;;8.23;7.43;;;21.60;99.90;;;;;;4953157;29;20372;-80
2021/09/23 09:40:12;;;;;;;7.37;6.73;;;21.50;99.90;;;;;;4954427;28;20233;-79
2021/09/23 09:42:42;;;;;;;7.43;6.80;;;21.50;99.90;;;;;;4969380;28;20199;-80
2021/09/23 09:45:15;;;;;;;7.23;6.60;;;21.50;99.90;;;;;;4969262;28;20695;-80
2021/09/23 09:47:43;;;;;;;7.77;6.60;;;21.50;99.90;;;;;;4969815;28;20203;-80
2021/09/23 09:50:16;;;;;;;9.27;8.37;;;21.40;99.90;;;;;;4933497;29;20207;-79
2021/09/23 09:52:49;;;;;;;9.57;8.77;;;21.10;99.90;;;;;;4946629;28;20581;-80
2021/09/23 09:55:18;;;;;;;10.50;9.60;;;21.10;99.90;;;;;;4929840;29;20234;-79
2021/09/23 09:57:46;;;;;;;5.80;5.30;;;21.20;99.90;;;;;;4952377;28;20690;-79
2021/09/23 10:00:14;;;;;;;5.10;4.60;;;21.30;99.90;;;;;;4969179;28;20201;-79
2021/09/23 10:02:43;;;;;;;5.47;4.17;;;21.10;99.90;;;;;;4954300;29;20199;-79
2021/09/23 10:05:17;;;;;;;4.00;3.60;;;21.10;99.90;;;;;;4938056;29;20245;-79
2021/09/23 10:07:47;;;;;;;4.10;3.70;;;21.00;99.90;;;;;;4937235;29;20493;-79
2021/09/23 10:10:15;;;;;;;9.10;8.40;;;21.00;99.90;;;;;;4931661;29;20256;-80
2021/09/23 10:12:48;;;;;;;8.63;8.00;;;20.80;99.90;;;;;;4953532;28;20261;-79
2021/09/23 10:15:18;;;;;;;4.57;3.77;;;20.70;99.90;;;;;;4930611;29;20325;-79
2021/09/23 10:17:47;;;;;;;9.03;8.23;;;20.60;99.90;;;;;;4952129;28;20567;-79
2021/09/23 10:20:17;;;;;;;3.90;3.60;;;20.50;99.90;;;;;;4954348;29;20202;-79
2021/09/23 10:22:44;;;;;;;9.33;8.63;;;20.50;99.90;;;;;;4969038;28;20201;-79
2021/09/23 10:25:14;;;;;;;4.20;3.80;;;20.40;99.90;;;;;;4931936;29;20359;-79
2021/09/23 10:27:59;;;;;;;4.07;3.47;;;20.40;99.90;;;;;;4952931;29;20679;-79
2021/09/23 10:30:28;;;;;;;8.67;8.07;;;20.30;99.90;;;;;;4932222;29;20210;-79
2021/09/23 10:32:56;;;;;;;9.67;8.97;;;20.30;99.90;;;;;;4933036;29;20596;-79
2021/09/23 10:35:25;;;;;;;9.90;9.20;;;20.20;99.90;;;;;;4948887;29;20649;-79
2021/09/23 10:37:58;;;;;;;8.70;8.20;;;20.10;99.90;;;;;;4968470;28;20295;-79
2021/09/23 10:40:26;;;;;;;9.20;8.60;;;20.20;99.90;;;;;;4968609;28;20204;-79
2021/09/23 10:42:56;;;;;;;8.93;8.33;;;20.20;99.90;;;;;;4936642;29;20201;-79
2021/09/23 10:45:28;;;;;;;8.83;8.23;;;20.20;99.90;;;;;;4929994;29;20228;-79
2021/09/23 10:47:58;;;;;;;8.53;7.93;;;20.20;99.90;;;;;;4929329;29;20228;-79
2021/09/23 10:50:28;;;;;;;8.73;8.13;;;20.20;99.90;;;;;;4935974;29;20202;-80
2021/09/23 10:52:57;;;;;;;8.60;8.00;;;20.20;99.90;;;;;;4933333;29;20704;-80
2021/09/23 10:55:27;;;;;;;8.87;8.27;;;20.20;99.90;;;;;;4949171;29;20219;-78
2021/09/23 10:57:55;;;;;;;8.87;8.17;;;20.20;99.90;;;;;;4936232;28;20201;-79
2021/09/23 11:00:25;;;;;;;9.33;8.60;;;20.20;99.90;;;;;;4973686;28;20206;-79
2021/09/23 11:02:54;;;;;;;8.87;8.20;;;20.20;99.90;;;;;;4933669;28;20210;-80
2021/09/23 11:05:21;;;;;;;9.00;8.30;;;20.10;99.90;;;;;;4933627;29;20888;-79
2021/09/23 11:07:52;;;;;;;8.73;8.13;;;20.20;99.90;;;;;;4957306;29;20192;-79
2021/09/23 11:10:21;;;;;;;9.20;8.50;;;20.20;99.90;;;;;;4940591;29;20256;-79
2021/09/23 11:12:52;;;;;;;9.13;8.33;;;20.30;99.90;;;;;;4956097;29;20193;-79
2021/09/23 11:15:20;;;;;;;8.67;8.07;;;20.20;99.90;;;;;;4925523;29;20248;-79
2021/09/23 11:17:49;;;;;;;8.50;8.00;;;20.20;99.90;;;;;;4950488;28;20226;-79
2021/09/23 11:20:20;;;;;;;8.80;8.20;;;20.20;99.90;;;;;;4935942;29;20220;-79
2021/09/23 11:22:50;;;;;;;8.90;8.30;;;20.20;99.90;;;;;;4940237;29;20683;-79
2021/09/23 11:25:21;;;;;;;9.00;8.40;;;20.10;99.90;;;;;;4934540;29;20284;-79
2021/09/23 11:27:50;;;;;;;8.80;8.20;;;20.10;99.90;;;;;;4933324;29;21006;-79
2021/09/23 11:30:20;;;;;;;8.83;8.23;;;20.10;99.90;;;;;;4933399;29;20618;-79
2021/09/23 11:32:49;;;;;;;8.87;8.27;;;20.20;99.90;;;;;;4956238;28;20208;-79
2021/09/23 11:35:18;;;;;;;8.90;8.30;;;20.10;99.90;;;;;;4956003;29;20248;-79
2021/09/23 11:37:46;;;;;;;8.80;8.10;;;20.10;99.90;;;;;;4936767;29;20206;-78
2021/09/23 11:40:21;;;;;;;9.60;8.90;;;20.20;99.90;;;;;;4954380;29;20261;-79
2021/09/23 11:42:49;;;;;;;9.60;8.90;;;20.10;99.90;;;;;;4956432;28;20203;-79
2021/09/23 11:45:19;;;;;;;9.70;8.90;;;20.10;99.90;;;;;;4937228;29;20295;-79
2021/09/23 11:47:48;;;;;;;8.67;8.07;;;20.00;99.90;;;;;;4956875;29;20220;-79
2021/09/23 11:50:34;;;;;;;8.63;8.03;;;20.00;99.90;;;;;;4934479;29;20212;-78
2021/09/23 11:53:06;;;;;;;9.03;8.43;;;20.10;99.90;;;;;;4950513;28;20203;-79
2021/09/23 11:55:35;;;;;;;9.50;8.70;;;20.10;99.90;;;;;;4971547;28;20659;-79
2021/09/23 11:58:07;;;;;;;8.90;8.30;;;20.10;99.90;;;;;;4937490;29;20205;-78
2021/09/23 12:00:41;;;;;;;9.07;8.43;;;20.10;99.90;;;;;;4971320;28;20209;-79
2021/09/23 12:03:09;;;;;;;9.20;8.60;;;20.10;99.90;;;;;;4934820;28;20238;-79
2021/09/23 12:05:37;;;;;;;9.30;8.70;;;20.20;99.90;;;;;;4955282;28;20682;-78
2021/09/23 12:08:11;;;;;;;9.40;8.80;;;20.30;99.90;;;;;;4935933;29;20220;-79
2021/09/23 12:10:51;;;;;;;9.60;9.00;;;20.30;99.90;;;;;;4954844;29;20200;-79
2021/09/23 12:13:30;;;;;;;9.03;8.30;;;20.40;99.90;;;;;;4936210;29;20260;-79
2021/09/23 12:15:59;;;;;;;9.43;8.73;;;20.40;99.90;;;;;;4936261;29;20692;-79
2021/09/23 12:18:27;;;;;;;8.90;8.30;;;20.40;99.90;;;;;;4950782;29;20279;-79
2021/09/23 12:20:56;;;;;;;9.27;8.67;;;20.40;99.90;;;;;;4939273;29;20678;-79
2021/09/23 12:23:32;;;;;;;8.77;8.17;;;20.50;99.90;;;;;;4952008;28;20639;-79
2021/09/23 12:26:14;;;;;;;9.97;9.30;;;20.60;99.90;;;;;;4968884;28;20869;-80
2021/09/23 12:28:50;;;;;;;9.83;9.13;;;20.60;99.90;;;;;;4933657;29;20235;-81
2021/09/23 12:31:28;;;;;;;9.30;8.60;;;20.70;99.90;;;;;;4935650;29;20209;-80
2021/09/23 12:33:58;;;;;;;9.20;8.60;;;20.60;99.90;;;;;;4951368;29;20222;-80
2021/09/23 12:36:28;;;;;;;9.37;8.77;;;20.70;99.90;;;;;;4951694;29;20201;-81
2021/09/23 12:39:16;;;;;;;9.00;8.40;;;20.80;99.90;;;;;;4938221;29;20206;-80
2021/09/23 12:42:05;;;;;;;3.80;2.97;;;20.80;99.90;;;;;;4970736;28;20216;-78
2021/09/23 12:44:33;;;;;;;3.50;3.20;;;20.90;99.90;;;;;;4935851;29;20599;-80
2021/09/23 12:47:15;;;;;;;3.27;2.97;;;20.90;99.90;;;;;;4938363;28;20203;-80
2021/09/23 12:49:58;;;;;;;3.60;3.30;;;20.90;99.90;;;;;;4938380;29;20215;-80
2021/09/23 12:52:26;;;;;;;3.13;2.90;;;21.00;99.90;;;;;;4934495;29;20246;-80